createdAt,value
2023-10-26T00:01:03.521Z,67.03
2023-10-26T00:02:08.974Z,67.01
2023-10-26T00:03:14.825Z,67.01
2023-10-26T00:04:20.882Z,67.06
2023-10-26T00:05:26.479Z,67.21
2023-10-26T00:06:31.981Z,67.13
2023-10-26T00:07:37.492Z,67.11
2023-10-26T00:08:43.074Z,67.5
2023-10-26T00:09:48.545Z,67.88
2023-10-26T00:10:54.057Z,67.99
2023-10-26T00:11:59.650Z,67.52
2023-10-26T00:13:05.594Z,67.43
2023-10-26T00:14:11.125Z,67.42
2023-10-26T00:15:16.679Z,67.28
2023-10-26T00:16:22.198Z,67.54
2023-10-26T00:17:27.739Z,67.25
2023-10-26T00:18:33.474Z,67.37
2023-10-26T00:19:39.058Z,67.28
2023-10-26T00:20:44.573Z,67.96
2023-10-26T00:21:50.068Z,67.99
2023-10-26T00:22:55.537Z,67.82
2023-10-26T00:24:01.129Z,67.46
2023-10-26T00:25:06.615Z,67.48
2023-10-26T00:26:12.081Z,67.45
2023-10-26T00:27:17.717Z,67.42
2023-10-26T00:28:23.258Z,67.46
2023-10-26T00:29:28.767Z,68.16
2023-10-26T00:30:34.271Z,67.73
2023-10-26T00:31:39.715Z,67.54
2023-10-26T00:32:45.296Z,67.64
2023-10-26T00:33:50.998Z,67.78
2023-10-26T00:34:56.542Z,67.83
2023-10-26T00:36:02.125Z,68.26
2023-10-26T00:37:07.680Z,68.03
2023-10-26T00:38:13.143Z,67.77
2023-10-26T00:39:18.674Z,67.75
2023-10-26T00:40:24.166Z,67.71
2023-10-26T00:41:29.619Z,67.56
2023-10-26T00:42:35.076Z,67.56
2023-10-26T00:43:40.550Z,67.7
2023-10-26T00:44:46.731Z,67.58
2023-10-26T00:45:52.219Z,67.74
2023-10-26T00:46:57.712Z,67.75
2023-10-26T00:48:03.594Z,67.76
2023-10-26T00:49:09.423Z,67.87
2023-10-26T00:50:14.932Z,68.03
2023-10-26T00:51:20.497Z,67.68
2023-10-26T00:52:26.094Z,67.7
2023-10-26T00:53:31.569Z,67.87
2023-10-26T00:54:37.061Z,67.82
2023-10-26T00:55:42.555Z,67.76
2023-10-26T00:56:48.014Z,67.85
2023-10-26T00:57:53.767Z,67.93
2023-10-26T00:58:59.232Z,68.46
2023-10-26T01:00:04.887Z,67.98
2023-10-26T01:01:10.391Z,68.47
2023-10-26T01:02:15.997Z,67.85
2023-10-26T01:03:21.948Z,67.88
2023-10-26T01:04:27.419Z,67.71
2023-10-26T01:05:32.894Z,67.79
2023-10-26T01:06:38.325Z,67.63
2023-10-26T01:07:43.787Z,67.6
2023-10-26T01:08:49.380Z,67.74
2023-10-26T01:09:54.955Z,67.71
2023-10-26T01:11:00.450Z,67.7
2023-10-26T01:12:06.070Z,67.66
2023-10-26T01:13:11.602Z,67.75
2023-10-26T01:14:17.104Z,67.72
2023-10-26T01:15:22.806Z,67.77
2023-10-26T01:16:28.301Z,68.05
2023-10-26T01:17:34.510Z,68.15
2023-10-26T01:18:40.176Z,68
2023-10-26T01:19:45.964Z,68.46
2023-10-26T01:20:51.571Z,68.59
2023-10-26T01:21:57.319Z,67.92
2023-10-26T01:23:02.770Z,67.85
2023-10-26T01:24:08.420Z,68.05
2023-10-26T01:25:13.904Z,68.21
2023-10-26T01:26:19.343Z,68
2023-10-26T01:27:24.869Z,68.6
2023-10-26T01:28:30.434Z,68.39
2023-10-26T01:29:35.905Z,68.36
2023-10-26T01:30:41.359Z,68.62
2023-10-26T01:31:46.857Z,68.69
2023-10-26T01:32:52.613Z,68.35
2023-10-26T01:33:58.162Z,68.11
2023-10-26T01:35:03.641Z,68.45
2023-10-26T01:36:09.220Z,68.24
2023-10-26T01:37:14.684Z,68.69
2023-10-26T01:38:20.198Z,68.49
2023-10-26T01:39:25.779Z,68.76
2023-10-26T01:40:31.276Z,68.83
2023-10-26T01:41:36.830Z,68.5
2023-10-26T01:42:42.292Z,68.49
2023-10-26T01:43:47.834Z,68.09
2023-10-26T01:44:53.426Z,68.03
2023-10-26T01:45:58.937Z,67.95
2023-10-26T01:47:04.488Z,68.43
2023-10-26T01:48:10.181Z,68.58
2023-10-26T01:49:15.810Z,67.98
2023-10-26T01:50:21.291Z,68.19
2023-10-26T01:51:26.902Z,67.95
2023-10-26T01:52:32.387Z,68.24
2023-10-26T01:53:37.858Z,68.05
2023-10-26T01:54:43.636Z,68.02
2023-10-26T01:55:49.368Z,67.89
2023-10-26T01:56:55.020Z,68.2
2023-10-26T01:58:00.469Z,68.09
2023-10-26T01:59:05.992Z,68.1
2023-10-26T02:00:11.588Z,68.82
2023-10-26T02:01:17.070Z,68.79
2023-10-26T02:02:22.528Z,68.56
2023-10-26T02:03:28.184Z,68.67
2023-10-26T02:04:33.791Z,68.89
2023-10-26T02:05:39.450Z,68.06
2023-10-26T02:06:47.623Z,68.62
2023-10-26T02:07:53.144Z,68.01
2023-10-26T02:08:58.700Z,68.21
2023-10-26T02:10:04.365Z,68.29
2023-10-26T02:11:09.807Z,68.66
2023-10-26T02:12:16.418Z,68.08
2023-10-26T02:13:21.939Z,68.01
2023-10-26T02:14:28.420Z,68.29
2023-10-26T02:15:33.900Z,67.95
2023-10-26T02:16:39.336Z,67.95
2023-10-26T02:17:44.905Z,67.73
2023-10-26T02:18:50.864Z,68.21
2023-10-26T02:19:56.392Z,67.9
2023-10-26T02:21:02.114Z,67.88
2023-10-26T02:22:07.570Z,67.95
2023-10-26T02:23:13.068Z,68.1
2023-10-26T02:24:18.691Z,67.73
2023-10-26T02:25:24.190Z,67.75
2023-10-26T02:26:29.669Z,67.96
2023-10-26T02:27:35.141Z,67.75
2023-10-26T02:28:40.683Z,68.02
2023-10-26T02:29:46.167Z,67.97
2023-10-26T02:30:51.682Z,67.77
2023-10-26T02:31:57.165Z,67.71
2023-10-26T02:33:02.978Z,67.9
2023-10-26T02:34:08.495Z,67.79
2023-10-26T02:35:13.985Z,67.77
2023-10-26T02:36:19.616Z,67.69
2023-10-26T02:37:25.155Z,67.88
2023-10-26T02:38:30.614Z,68.67
2023-10-26T02:39:36.120Z,68.74
2023-10-26T02:40:41.590Z,68.76
2023-10-26T02:41:47.085Z,68.42
2023-10-26T02:42:53.562Z,68.66
2023-10-26T02:43:59.026Z,66.99
2023-10-26T02:45:04.806Z,67.53
2023-10-26T02:46:10.324Z,67
2023-10-26T02:47:15.755Z,66.9
2023-10-26T02:48:21.539Z,67.22
2023-10-26T02:49:27.040Z,66.41
2023-10-26T02:50:33.764Z,66.5
2023-10-26T02:51:39.940Z,66.61
2023-10-26T02:52:45.403Z,66.52
2023-10-26T02:53:50.867Z,66.27
2023-10-26T02:54:57.426Z,65.96
2023-10-26T02:56:02.981Z,65.79
2023-10-26T02:57:08.767Z,65.69
2023-10-26T02:58:14.239Z,65.58
2023-10-26T02:59:19.713Z,65.67
2023-10-26T03:00:25.317Z,65.5
2023-10-26T03:01:30.783Z,65.35
2023-10-26T03:02:36.450Z,65.32
2023-10-26T03:03:42.260Z,65.38
2023-10-26T03:04:48.060Z,65.23
2023-10-26T03:05:53.853Z,65.27
2023-10-26T03:07:01.186Z,65.2
2023-10-26T03:08:06.663Z,65.18
2023-10-26T03:09:12.677Z,65.26
2023-10-26T03:10:18.390Z,64.98
2023-10-26T03:11:23.894Z,64.98
2023-10-26T03:12:29.501Z,65.02
2023-10-26T03:13:34.988Z,64.87
2023-10-26T03:14:40.460Z,64.83
2023-10-26T03:15:45.938Z,64.8
2023-10-26T03:16:51.674Z,64.71
2023-10-26T03:17:57.343Z,64.72
2023-10-26T03:19:02.917Z,64.7
2023-10-26T03:20:08.408Z,64.69
2023-10-26T03:21:13.986Z,64.58
2023-10-26T03:22:19.486Z,64.63
2023-10-26T03:23:25.016Z,64.55
2023-10-26T03:24:30.603Z,64.41
2023-10-26T03:25:36.148Z,64.48
2023-10-26T03:26:41.623Z,64.59
2023-10-26T03:27:47.089Z,64.43
2023-10-26T03:28:52.598Z,64.43
2023-10-26T03:29:58.171Z,64.37
2023-10-26T03:31:03.686Z,64.36
2023-10-26T03:32:09.251Z,64.36
2023-10-26T03:33:14.960Z,64.37
2023-10-26T03:34:20.424Z,64.38
2023-10-26T03:35:25.866Z,64.3
2023-10-26T03:36:31.591Z,64.33
2023-10-26T03:37:37.132Z,64.29
2023-10-26T03:38:42.600Z,64.25
2023-10-26T03:39:48.066Z,64.27
2023-10-26T03:40:53.641Z,64.18
2023-10-26T03:41:59.327Z,64.23
2023-10-26T03:43:04.774Z,64.23
2023-10-26T03:44:10.225Z,64.22
2023-10-26T03:45:15.896Z,64.2
2023-10-26T03:46:21.443Z,64.15
2023-10-26T03:47:27.074Z,64.14
2023-10-26T03:48:32.698Z,64.17
2023-10-26T03:49:38.290Z,64.15
2023-10-26T03:50:43.745Z,64.12
2023-10-26T03:51:49.360Z,64.13
2023-10-26T03:52:54.934Z,64.13
2023-10-26T03:54:00.570Z,64.13
2023-10-26T03:55:06.251Z,64.09
2023-10-26T03:56:11.750Z,64.04
2023-10-26T03:57:17.495Z,64.07
2023-10-26T03:58:23.024Z,64.09
2023-10-26T03:59:28.500Z,64.1
2023-10-26T04:00:34.083Z,64.12
2023-10-26T04:01:39.696Z,64.06
2023-10-26T04:02:45.334Z,64.01
2023-10-26T04:03:50.944Z,64
2023-10-26T04:04:56.466Z,63.94
2023-10-26T04:06:02.105Z,63.8
2023-10-26T04:07:07.647Z,63.83
2023-10-26T04:08:13.276Z,63.87
2023-10-26T04:09:18.951Z,63.8
2023-10-26T04:10:24.484Z,63.86
2023-10-26T04:11:30.043Z,63.78
2023-10-26T04:12:35.650Z,63.67
2023-10-26T04:13:41.187Z,63.55
2023-10-26T04:14:47.287Z,63.35
2023-10-26T04:15:52.988Z,63.32
2023-10-26T04:16:58.475Z,63.26
2023-10-26T04:18:04.625Z,63.19
2023-10-26T04:19:10.208Z,63.19
2023-10-26T04:20:15.727Z,63.1
2023-10-26T04:21:21.487Z,63.04
2023-10-26T04:22:27.018Z,63.06
2023-10-26T04:23:32.480Z,63.01
2023-10-26T04:24:38.019Z,62.96
2023-10-26T04:25:57.449Z,62.95
2023-10-26T04:27:02.963Z,62.93
2023-10-26T04:28:08.487Z,62.91
2023-10-26T04:29:13.936Z,62.9
2023-10-26T04:30:19.591Z,62.86
2023-10-26T04:31:25.360Z,62.85
2023-10-26T04:32:30.961Z,62.84
2023-10-26T04:33:36.691Z,62.84
2023-10-26T04:34:42.246Z,62.84
2023-10-26T04:35:48.020Z,62.83
2023-10-26T04:36:53.484Z,62.83
2023-10-26T04:37:58.928Z,62.84
2023-10-26T04:39:04.472Z,62.84
2023-10-26T04:40:09.924Z,62.85
2023-10-26T04:41:15.423Z,62.85
2023-10-26T04:42:21.031Z,62.87
2023-10-26T04:43:26.532Z,62.91
2023-10-26T04:44:32.002Z,62.93
2023-10-26T04:45:37.557Z,62.94
2023-10-26T04:46:43.178Z,62.94
2023-10-26T04:47:48.722Z,62.96
2023-10-26T04:48:54.299Z,63.03
2023-10-26T04:49:59.810Z,63.04
2023-10-26T04:51:05.395Z,63.08
2023-10-26T04:52:10.873Z,63.13
2023-10-26T04:53:16.294Z,63.16
2023-10-26T04:54:21.900Z,63.18
2023-10-26T04:55:27.433Z,63.18
2023-10-26T04:56:32.892Z,63.2
2023-10-26T04:57:38.386Z,63.25
2023-10-26T04:58:43.849Z,63.29
2023-10-26T04:59:49.298Z,63.29
2023-10-26T05:00:54.847Z,63.32
2023-10-26T05:02:00.469Z,63.32
2023-10-26T05:03:06.191Z,63.33
2023-10-26T05:04:11.785Z,63.38
2023-10-26T05:05:17.288Z,63.38
2023-10-26T05:06:23.257Z,63.38
2023-10-26T05:07:28.861Z,63.38
2023-10-26T05:08:34.312Z,63.4
2023-10-26T05:09:39.892Z,63.39
2023-10-26T05:10:45.369Z,63.4
2023-10-26T05:11:50.883Z,63.38
2023-10-26T05:12:56.325Z,63.38
2023-10-26T05:14:01.778Z,63.36
2023-10-26T05:15:10.209Z,63.37
2023-10-26T05:16:15.772Z,63.37
2023-10-26T05:17:21.272Z,63.37
2023-10-26T05:18:26.880Z,63.37
2023-10-26T05:19:32.384Z,63.36
2023-10-26T05:20:37.851Z,63.35
2023-10-26T05:21:43.281Z,63.36
2023-10-26T05:22:48.898Z,63.33
2023-10-26T05:23:54.405Z,63.35
2023-10-26T05:24:59.849Z,63.3
2023-10-26T05:26:05.375Z,63.31
2023-10-26T05:27:11.026Z,63.31
2023-10-26T05:28:16.744Z,63.29
2023-10-26T05:29:22.260Z,63.28
2023-10-26T05:30:27.854Z,63.32
2023-10-26T05:31:33.493Z,63.31
2023-10-26T05:32:39.103Z,63.33
2023-10-26T05:33:44.855Z,63.35
2023-10-26T05:34:50.337Z,63.39
2023-10-26T05:35:55.867Z,63.37
2023-10-26T05:37:01.379Z,63.34
2023-10-26T05:38:06.896Z,63.36
2023-10-26T05:39:12.457Z,63.29
2023-10-26T05:40:17.907Z,63.23
2023-10-26T05:41:23.375Z,63.25
2023-10-26T05:42:28.984Z,63.01
2023-10-26T05:43:34.554Z,63.16
2023-10-26T05:44:40.061Z,63.11
2023-10-26T05:45:45.564Z,63.2
2023-10-26T05:46:51.011Z,63.11
2023-10-26T05:47:56.694Z,63.21
2023-10-26T05:49:02.228Z,63.08
2023-10-26T05:50:07.781Z,63.03
2023-10-26T05:51:13.462Z,63.04
2023-10-26T05:52:18.963Z,63.04
2023-10-26T05:53:24.432Z,63.08
2023-10-26T05:54:29.978Z,63.04
2023-10-26T05:55:35.547Z,63.11
2023-10-26T05:56:40.990Z,63.04
2023-10-26T05:57:46.425Z,63.07
2023-10-26T05:58:54.459Z,63.02
2023-10-26T06:00:00.001Z,63.06
2023-10-26T06:01:05.478Z,63.08
2023-10-26T06:02:10.989Z,63.02
2023-10-26T06:03:16.609Z,63
2023-10-26T06:04:22.174Z,63.08
2023-10-26T06:05:27.668Z,63.07
2023-10-26T06:06:33.261Z,63.18
2023-10-26T06:07:38.774Z,63.1
2023-10-26T06:08:44.230Z,63.11
2023-10-26T06:09:49.729Z,63.04
2023-10-26T06:10:55.188Z,63.11
2023-10-26T06:12:00.780Z,63.07
2023-10-26T06:13:06.254Z,63.12
2023-10-26T06:14:11.811Z,63.08
2023-10-26T06:15:17.465Z,63.06
2023-10-26T06:16:23.082Z,63.11
2023-10-26T06:17:28.860Z,63.17
2023-10-26T06:18:34.409Z,63.16
2023-10-26T06:19:39.953Z,63.17
2023-10-26T06:20:45.512Z,63.18
2023-10-26T06:21:50.989Z,63.08
2023-10-26T06:22:56.448Z,63.13
2023-10-26T06:24:02.112Z,63.11
2023-10-26T06:25:07.646Z,63.18
2023-10-26T06:26:13.150Z,63.11
2023-10-26T06:27:18.726Z,63.14
2023-10-26T06:28:24.214Z,63.14
2023-10-26T06:29:29.658Z,63.19
2023-10-26T06:30:35.331Z,63.26
2023-10-26T06:31:40.990Z,63.29
2023-10-26T06:32:46.596Z,63.26
2023-10-26T06:33:52.206Z,63.2
2023-10-26T06:34:57.684Z,63.21
2023-10-26T06:36:03.211Z,63.25
2023-10-26T06:37:08.787Z,63.15
2023-10-26T06:38:14.271Z,63.16
2023-10-26T06:39:19.859Z,63.18
2023-10-26T06:40:25.324Z,63.18
2023-10-26T06:41:30.935Z,63.16
2023-10-26T06:42:36.519Z,63.17
2023-10-26T06:43:42.147Z,63.17
2023-10-26T06:44:47.902Z,63.14
2023-10-26T06:45:53.426Z,63.12
2023-10-26T06:46:58.896Z,63.11
2023-10-26T06:48:04.623Z,63.22
2023-10-26T06:49:32.100Z,63.17
2023-10-26T06:50:37.589Z,63.12
2023-10-26T06:51:43.122Z,63.1
2023-10-26T06:52:48.656Z,63.08
2023-10-26T06:53:54.161Z,63.07
2023-10-26T06:54:59.977Z,63.04
2023-10-26T06:56:06.145Z,63.02
2023-10-26T06:57:11.705Z,62.99
2023-10-26T06:58:17.197Z,62.9
2023-10-26T06:59:22.695Z,62.8
2023-10-26T07:00:28.302Z,62.77
2023-10-26T07:02:13.925Z,62.79
2023-10-26T07:03:20.042Z,62.71
2023-10-26T07:04:26.074Z,62.78
2023-10-26T07:05:31.541Z,62.7
2023-10-26T07:06:37.196Z,62.67
2023-10-26T07:07:42.748Z,62.66
2023-10-26T07:08:50.365Z,62.67
2023-10-26T07:09:57.564Z,62.67
2023-10-26T07:11:03.043Z,62.68
2023-10-26T07:12:08.667Z,62.74
2023-10-26T07:13:14.232Z,62.74
2023-10-26T07:14:19.659Z,62.76
2023-10-26T07:15:25.331Z,62.78
2023-10-26T07:16:31.131Z,62.8
2023-10-26T07:17:36.805Z,62.85
2023-10-26T07:18:42.409Z,62.87
2023-10-26T07:19:47.923Z,62.86
2023-10-26T07:20:53.507Z,62.95
2023-10-26T07:21:58.997Z,62.99
2023-10-26T07:23:04.478Z,62.98
2023-10-26T07:24:10.121Z,62.93
2023-10-26T07:25:15.656Z,62.95
2023-10-26T07:26:21.324Z,63
2023-10-26T07:27:26.849Z,63.01
2023-10-26T07:28:32.533Z,62.99
2023-10-26T07:29:37.979Z,62.99
2023-10-26T07:30:43.657Z,63
2023-10-26T07:32:05.617Z,62.99
2023-10-26T07:33:11.456Z,62.98
2023-10-26T07:34:16.953Z,63
2023-10-26T07:35:22.507Z,62.97
2023-10-26T07:36:28.104Z,63.03
2023-10-26T07:37:33.765Z,63.06
2023-10-26T07:38:40.692Z,63.05
2023-10-26T07:54:07.382Z,63.08
2023-10-26T07:55:13.281Z,63.11
2023-10-26T07:56:19.822Z,63.07
2023-10-26T07:57:26.262Z,63.1
2023-10-26T07:58:31.961Z,63.07
2023-10-26T07:59:37.587Z,63.08
2023-10-26T08:00:43.153Z,63.04
2023-10-26T08:01:49.308Z,63.07
2023-10-26T08:02:55.536Z,63.05
2023-10-26T08:04:01.078Z,63.07
2023-10-26T08:05:06.692Z,63.07
2023-10-26T08:06:12.266Z,63.03
2023-10-26T08:07:17.730Z,63.07
2023-10-26T08:08:23.169Z,63.07
2023-10-26T08:09:28.619Z,63.04
2023-10-26T08:10:34.234Z,63.03
2023-10-26T08:11:40.743Z,63.02
2023-10-26T08:12:46.186Z,62.99
2023-10-26T08:13:55.956Z,62.96
2023-10-26T08:16:46.014Z,62.94
2023-10-26T08:17:52.647Z,62.92
2023-10-26T08:18:58.515Z,62.95
2023-10-26T08:20:07.692Z,62.93
2023-10-26T08:21:13.183Z,62.95
2023-10-26T08:22:18.710Z,62.92
2023-10-26T08:23:24.311Z,62.9
2023-10-26T08:24:29.840Z,62.9
2023-10-26T08:25:35.443Z,62.85
2023-10-26T08:26:40.994Z,62.94
2023-10-26T08:27:46.549Z,62.91
2023-10-26T08:29:07.014Z,62.92
2023-10-26T08:30:17.598Z,62.9
2023-10-26T08:31:23.352Z,62.86
2023-10-26T08:32:29.328Z,62.85
2023-10-26T08:33:35.057Z,62.84
2023-10-26T08:34:40.682Z,62.84
2023-10-26T08:35:46.140Z,62.84
2023-10-26T08:37:15.029Z,62.75
2023-10-26T08:38:20.518Z,62.77
2023-10-26T08:39:26.048Z,62.77
2023-10-26T08:40:31.738Z,62.76
2023-10-26T08:41:37.252Z,62.78
2023-10-26T08:42:42.795Z,62.8
2023-10-26T08:43:49.420Z,62.79
2023-10-26T08:44:54.937Z,62.75
2023-10-26T08:46:00.558Z,62.56
2023-10-26T08:47:06.338Z,62.57
2023-10-26T08:48:11.987Z,62.58
2023-10-26T08:49:17.473Z,62.58
2023-10-26T08:50:23.114Z,62.55
2023-10-26T08:51:28.749Z,62.53
2023-10-26T08:52:34.469Z,62.52
2023-10-26T08:53:39.991Z,62.47
2023-10-26T08:54:45.932Z,62.46
2023-10-26T08:55:51.501Z,62.46
2023-10-26T08:56:57.012Z,62.45
2023-10-26T08:58:02.636Z,62.45
2023-10-26T08:59:08.299Z,62.42
2023-10-26T09:00:13.800Z,62.42
2023-10-26T09:01:19.446Z,62.47
2023-10-26T09:02:25.306Z,62.48
2023-10-26T09:03:31.192Z,62.48
2023-10-26T09:04:38.013Z,62.48
2023-10-26T09:05:43.617Z,62.49
2023-10-26T09:06:49.532Z,62.51
2023-10-26T09:07:55.174Z,62.54
2023-10-26T09:09:00.877Z,62.54
2023-10-26T09:10:06.397Z,62.58
2023-10-26T09:11:11.930Z,62.61
2023-10-26T09:12:17.440Z,62.59
2023-10-26T09:13:22.917Z,62.67
2023-10-26T09:14:28.415Z,62.7
2023-10-26T09:15:33.869Z,62.75
2023-10-26T09:16:39.776Z,62.68
2023-10-26T09:17:45.512Z,62.76
2023-10-26T09:18:51.002Z,62.76
2023-10-26T09:19:56.603Z,62.76
2023-10-26T09:21:02.067Z,62.76
2023-10-26T09:22:07.553Z,62.77
2023-10-26T09:23:13.163Z,62.75
2023-10-26T09:24:18.642Z,62.75
2023-10-26T09:25:25.205Z,62.75
2023-10-26T09:26:31.847Z,62.75
2023-10-26T09:27:37.304Z,62.75
2023-10-26T09:28:42.880Z,62.75
2023-10-26T09:29:48.363Z,62.73
2023-10-26T09:30:55.400Z,62.73
2023-10-26T09:32:01.068Z,62.74
2023-10-26T09:33:07.052Z,62.74
2023-10-26T09:34:12.625Z,62.77
2023-10-26T09:35:18.122Z,62.76
2023-10-26T09:36:23.817Z,62.74
2023-10-26T09:37:29.575Z,62.73
2023-10-26T09:38:35.050Z,62.74
2023-10-26T09:39:40.517Z,62.76
2023-10-26T09:40:46.109Z,62.74
2023-10-26T09:41:52.012Z,62.76
2023-10-26T09:42:57.875Z,62.76
2023-10-26T09:44:03.627Z,62.77
2023-10-26T09:45:09.170Z,62.77
2023-10-26T09:46:15.038Z,62.77
2023-10-26T09:47:22.113Z,62.78
2023-10-26T09:48:29.648Z,62.77
2023-10-26T09:49:35.724Z,62.8
2023-10-26T09:50:41.364Z,62.76
2023-10-26T09:51:46.871Z,62.79
2023-10-26T09:52:52.444Z,62.8
2023-10-26T09:53:58.118Z,62.8
2023-10-26T09:55:03.860Z,62.79
2023-10-26T09:56:09.368Z,62.79
2023-10-26T09:57:15.882Z,62.81
2023-10-26T09:58:21.370Z,62.79
2023-10-26T09:59:26.851Z,62.83
2023-10-26T10:00:32.427Z,62.81
2023-10-26T10:01:38.692Z,62.81
2023-10-26T10:02:44.511Z,62.85
2023-10-26T10:03:50.149Z,62.78
2023-10-26T10:04:55.648Z,62.84
2023-10-26T10:06:01.216Z,62.83
2023-10-26T10:07:06.899Z,62.91
2023-10-26T10:08:12.802Z,62.85
2023-10-26T10:09:18.412Z,62.79
2023-10-26T10:10:23.867Z,62.49
2023-10-26T10:11:29.346Z,62.19
2023-10-26T10:12:35.112Z,62.01
2023-10-26T10:13:41.076Z,61.83
2023-10-26T10:14:47.140Z,61.66
2023-10-26T10:15:52.830Z,61.58
2023-10-26T10:16:58.964Z,61.42
2023-10-26T10:18:04.656Z,61.34
2023-10-26T10:19:10.203Z,61.28
2023-10-26T10:20:15.729Z,61.21
2023-10-26T10:21:21.209Z,61.15
2023-10-26T10:22:26.798Z,60.99
2023-10-26T10:23:32.335Z,61.04
2023-10-26T10:24:37.851Z,61.02
2023-10-26T10:25:43.366Z,60.93
2023-10-26T10:26:48.843Z,60.85
2023-10-26T10:27:54.424Z,60.78
2023-10-26T10:29:02.528Z,60.68
2023-10-26T10:30:08.001Z,60.54
2023-10-26T10:31:13.532Z,60.55
2023-10-26T10:32:19.058Z,60.59
2023-10-26T10:33:24.642Z,60.52
2023-10-26T10:34:30.145Z,60.5
2023-10-26T10:35:35.617Z,60.48
2023-10-26T10:36:41.223Z,60.43
2023-10-26T10:37:46.745Z,60.49
2023-10-26T10:38:52.222Z,60.32
2023-10-26T10:39:57.859Z,60.39
2023-10-26T10:41:03.374Z,60.32
2023-10-26T10:42:09.025Z,60.3
2023-10-26T10:43:14.534Z,60.2
2023-10-26T10:44:20.055Z,60.22
2023-10-26T10:45:25.660Z,60.19
2023-10-26T10:46:31.302Z,60.1
2023-10-26T10:47:36.974Z,60.17
2023-10-26T10:48:42.564Z,60.09
2023-10-26T10:49:48.140Z,60.02
2023-10-26T10:50:53.630Z,59.89
2023-10-26T10:51:59.690Z,59.93
2023-10-26T10:53:05.226Z,59.9
2023-10-26T10:54:56.642Z,59.95
2023-10-26T10:56:05.178Z,59.9
2023-10-26T10:57:10.632Z,59.83
2023-10-26T10:58:16.346Z,59.88
2023-10-26T10:59:21.887Z,59.81
2023-10-26T11:00:30.126Z,59.72
2023-10-26T11:01:35.649Z,59.75
2023-10-26T11:02:41.236Z,59.75
2023-10-26T11:03:46.973Z,59.71
2023-10-26T11:05:18.772Z,59.72
2023-10-26T11:06:24.555Z,59.68
2023-10-26T11:07:30.095Z,59.59
2023-10-26T11:08:35.595Z,59.58
2023-10-26T11:09:41.209Z,59.62
2023-10-26T11:10:48.605Z,59.63
2023-10-26T11:11:54.078Z,59.51
2023-10-26T11:12:59.696Z,59.55
2023-10-26T11:14:05.156Z,59.45
2023-10-26T11:15:13.349Z,59.54
2023-10-26T11:16:18.938Z,59.49
2023-10-26T11:17:24.534Z,59.5
2023-10-26T11:18:30.145Z,59.47
2023-10-26T11:19:35.640Z,59.41
2023-10-26T11:20:41.133Z,59.45
2023-10-26T11:21:46.758Z,59.38
2023-10-26T11:22:52.202Z,59.43
2023-10-26T11:23:57.658Z,59.48
2023-10-26T11:25:03.370Z,59.38
2023-10-26T11:26:09.014Z,59.38
2023-10-26T11:27:14.494Z,59.38
2023-10-26T11:28:20.003Z,59.32
2023-10-26T11:29:25.449Z,59.35
2023-10-26T11:30:31.001Z,59.35
2023-10-26T11:31:36.670Z,59.35
2023-10-26T11:32:42.270Z,59.41
2023-10-26T11:33:50.016Z,59.29
2023-10-26T11:34:55.491Z,59.35
2023-10-26T11:36:01.023Z,59.3
2023-10-26T11:37:06.508Z,59.23
2023-10-26T11:38:12.004Z,59.34
2023-10-26T11:39:17.463Z,59.3
2023-10-26T11:40:22.907Z,59.29
2023-10-26T11:41:28.404Z,59.21
2023-10-26T11:42:33.934Z,59.22
2023-10-26T11:43:39.455Z,59.17
2023-10-26T11:44:45.513Z,59.21
2023-10-26T11:45:51.270Z,59.28
2023-10-26T11:46:56.845Z,59.23
2023-10-26T11:48:02.560Z,59.27
2023-10-26T11:49:08.211Z,59.21
2023-10-26T11:50:13.680Z,59.21
2023-10-26T11:51:19.138Z,59.21
2023-10-26T11:52:24.725Z,59.21
2023-10-26T11:53:30.267Z,59.21
2023-10-26T11:54:35.821Z,59.26
2023-10-26T11:55:41.321Z,59.23
2023-10-26T11:56:46.743Z,59.17
2023-10-26T11:57:52.365Z,59.21
2023-10-26T11:58:57.826Z,59.23
2023-10-26T12:00:03.271Z,59.18
2023-10-26T12:01:08.789Z,59.16
2023-10-26T12:02:14.225Z,59.3
2023-10-26T12:03:20.029Z,59.65
2023-10-26T12:04:25.697Z,59.7
2023-10-26T12:05:31.293Z,59.82
2023-10-26T12:06:36.860Z,59.89
2023-10-26T12:07:42.405Z,59.97
2023-10-26T12:08:47.999Z,60.16
2023-10-26T12:09:53.525Z,60.39
2023-10-26T12:10:59.031Z,60.42
2023-10-26T12:12:04.507Z,60.58
2023-10-26T12:13:10.129Z,60.63
2023-10-26T12:14:15.637Z,60.7
2023-10-26T12:15:21.168Z,60.76
2023-10-26T12:16:26.711Z,60.73
2023-10-26T12:17:32.330Z,60.93
2023-10-26T12:18:38.119Z,60.99
2023-10-26T12:19:44.171Z,61.06
2023-10-26T12:20:49.770Z,61.05
2023-10-26T12:21:57.905Z,61.1
2023-10-26T12:23:04.655Z,61.15
2023-10-26T12:24:10.146Z,61.19
2023-10-26T12:25:15.634Z,61.24
2023-10-26T12:26:24.570Z,61.29
2023-10-26T12:27:30.100Z,61.38
2023-10-26T12:28:35.734Z,61.39
2023-10-26T12:29:41.236Z,61.37
2023-10-26T12:30:46.907Z,61.38
2023-10-26T12:31:52.432Z,61.44
2023-10-26T12:32:58.183Z,61.45
2023-10-26T12:34:03.738Z,61.46
2023-10-26T12:35:09.268Z,61.49
2023-10-26T12:36:14.748Z,61.52
2023-10-26T12:37:20.245Z,61.57
2023-10-26T12:38:25.699Z,61.64
2023-10-26T12:39:31.251Z,61.78
2023-10-26T12:40:36.731Z,61.94
2023-10-26T12:41:42.167Z,62.12
2023-10-26T12:42:47.720Z,62.81
2023-10-26T12:43:53.206Z,62.62
2023-10-26T12:44:58.779Z,63.59
2023-10-26T12:46:04.591Z,63.53
2023-10-26T12:47:10.172Z,63.67
2023-10-26T12:48:15.655Z,63.72
2023-10-26T12:49:21.086Z,64.48
2023-10-26T12:50:26.648Z,63.92
2023-10-26T12:51:32.146Z,64.97
2023-10-26T12:52:37.636Z,65.14
2023-10-26T12:53:43.106Z,64.93
2023-10-26T12:54:48.729Z,65.8
2023-10-26T12:55:54.275Z,65.34
2023-10-26T12:56:59.737Z,65.48
2023-10-26T12:58:05.350Z,65.92
2023-10-26T12:59:10.866Z,65.87
2023-10-26T13:00:16.352Z,65.61
2023-10-26T13:01:21.989Z,65.77
2023-10-26T13:02:27.701Z,65.97
2023-10-26T13:03:33.275Z,66.09
2023-10-26T13:04:38.956Z,66.09
2023-10-26T13:05:44.461Z,66.06
2023-10-26T13:06:50.014Z,66.37
2023-10-26T13:07:55.505Z,66.15
2023-10-26T13:09:00.993Z,66.6
2023-10-26T13:10:06.605Z,66.28
2023-10-26T13:11:12.206Z,66.15
2023-10-26T13:12:17.700Z,66.37
2023-10-26T13:13:23.165Z,66.29
2023-10-26T13:14:28.680Z,66.32
2023-10-26T13:15:34.219Z,66.18
2023-10-26T13:17:00.391Z,66.23
2023-10-26T13:18:08.540Z,66.41
2023-10-26T13:19:14.709Z,66.35
2023-10-26T13:20:20.197Z,66.13
2023-10-26T13:21:27.062Z,66.09
2023-10-26T13:22:32.678Z,66.15
2023-10-26T13:23:38.138Z,66.19
2023-10-26T13:24:44.170Z,66.14
2023-10-26T13:25:51.013Z,66.14
2023-10-26T13:26:57.235Z,66.02
2023-10-26T13:28:02.874Z,66.03
2023-10-26T13:29:08.349Z,65.88
2023-10-26T13:30:13.874Z,65.95
2023-10-26T13:31:19.881Z,66.03
2023-10-26T13:32:25.484Z,65.89
2023-10-26T13:33:31.268Z,65.89
2023-10-26T13:34:36.964Z,65.82
2023-10-26T13:35:42.664Z,66.06
2023-10-26T13:36:48.214Z,65.82
2023-10-26T13:37:53.709Z,65.86
2023-10-26T13:39:00.416Z,65.73
2023-10-26T13:40:06.055Z,65.78
2023-10-26T13:41:11.764Z,65.86
2023-10-26T13:42:17.237Z,65.68
2023-10-26T13:43:22.651Z,65.73
2023-10-26T13:44:28.239Z,65.74
2023-10-26T13:45:33.952Z,65.75
2023-10-26T13:46:39.677Z,65.78
2023-10-26T13:47:45.306Z,65.77
2023-10-26T13:48:50.851Z,65.68
2023-10-26T13:49:56.666Z,65.57
2023-10-26T13:51:02.115Z,65.6
2023-10-26T13:52:07.653Z,65.45
2023-10-26T13:53:13.152Z,65.6
2023-10-26T13:54:18.616Z,65.56
2023-10-26T13:55:24.079Z,65.47
2023-10-26T13:56:29.539Z,65.43
2023-10-26T13:57:35.106Z,65.44
2023-10-26T13:58:40.586Z,65.48
2023-10-26T13:59:46.097Z,65.42
2023-10-26T14:00:51.762Z,65.48
2023-10-26T14:01:57.337Z,65.33
2023-10-26T14:03:02.861Z,65.29
2023-10-26T14:04:08.487Z,65.27
2023-10-26T14:05:32.523Z,65.26
2023-10-26T14:06:38.094Z,65.23
2023-10-26T14:07:43.575Z,65.25
2023-10-26T14:08:49.072Z,65.29
2023-10-26T14:09:55.881Z,65.21
2023-10-26T14:11:01.333Z,65.35
2023-10-26T14:12:06.815Z,65.15
2023-10-26T14:13:12.310Z,65.19
2023-10-26T14:14:17.743Z,65.24
2023-10-26T14:15:23.277Z,65.11
2023-10-26T14:16:33.135Z,65.07
2023-10-26T14:17:38.726Z,65.1
2023-10-26T14:18:44.249Z,65.1
2023-10-26T14:19:49.929Z,65.02
2023-10-26T14:20:55.468Z,65.09
2023-10-26T14:22:01.125Z,65.02
2023-10-26T14:23:08.985Z,65.1
2023-10-26T14:24:14.525Z,64.99
2023-10-26T14:25:19.977Z,64.95
2023-10-26T14:26:25.442Z,64.96
2023-10-26T14:27:30.940Z,64.94
2023-10-26T14:28:36.439Z,65.02
2023-10-26T14:29:41.934Z,64.95